sensor_id;sensor_type;location;lat;lon;timestamp;P1;durP1;ratioP1;P2;durP2;ratioP2
6832;SDS011;3454;42.654;23.378;2022-09-09T00:06:46;8.45;;;7.18;;
6832;SDS011;3454;42.654;23.378;2022-09-09T00:09:16;10.23;;;7.43;;
6832;SDS011;3454;42.654;23.378;2022-09-09T00:11:56;11.70;;;7.50;;
6832;SDS011;3454;42.654;23.378;2022-09-09T00:17:53;8.68;;;6.97;;
6832;SDS011;3454;42.654;23.378;2022-09-09T00:20:12;8.07;;;6.82;;
6832;SDS011;3454;42.654;23.378;2022-09-09T00:22:38;10.65;;;6.65;;
6832;SDS011;3454;42.654;23.378;2022-09-09T00:25:23;8.32;;;6.85;;
6832;SDS011;3454;42.654;23.378;2022-09-09T00:27:54;9.18;;;7.13;;
6832;SDS011;3454;42.654;23.378;2022-09-09T00:30:25;8.18;;;7.13;;
6832;SDS011;3454;42.654;23.378;2022-09-09T00:33:00;10.23;;;8.02;;
6832;SDS011;3454;42.654;23.378;2022-09-09T00:35:32;9.23;;;7.70;;
6832;SDS011;3454;42.654;23.378;2022-09-09T00:38:05;8.32;;;6.97;;
6832;SDS011;3454;42.654;23.378;2022-09-09T00:40:55;8.88;;;7.55;;
6832;SDS011;3454;42.654;23.378;2022-09-09T00:43:30;11.27;;;6.80;;
6832;SDS011;3454;42.654;23.378;2022-09-09T00:46:21;8.10;;;6.22;;
6832;SDS011;3454;42.654;23.378;2022-09-09T00:49:15;8.05;;;6.45;;
6832;SDS011;3454;42.654;23.378;2022-09-09T00:57:33;7.07;;;6.38;;
6832;SDS011;3454;42.654;23.378;2022-09-09T01:11:25;6.63;;;5.93;;
6832;SDS011;3454;42.654;23.378;2022-09-09T01:14:05;8.18;;;6.65;;
6832;SDS011;3454;42.654;23.378;2022-09-09T01:16:44;7.15;;;6.47;;
6832;SDS011;3454;42.654;23.378;2022-09-09T01:19:11;9.70;;;6.65;;
6832;SDS011;3454;42.654;23.378;2022-09-09T01:21:55;7.50;;;6.63;;
6832;SDS011;3454;42.654;23.378;2022-09-09T01:24:40;7.25;;;6.47;;
6832;SDS011;3454;42.654;23.378;2022-09-09T01:27:18;7.70;;;5.93;;
6832;SDS011;3454;42.654;23.378;2022-09-09T01:29:45;7.18;;;6.50;;
6832;SDS011;3454;42.654;23.378;2022-09-09T01:37:55;7.43;;;6.63;;
6832;SDS011;3454;42.654;23.378;2022-09-09T01:40:21;7.18;;;6.47;;
6832;SDS011;3454;42.654;23.378;2022-09-09T01:42:47;11.27;;;7.43;;
6832;SDS011;3454;42.654;23.378;2022-09-09T01:45:13;7.40;;;6.55;;
6832;SDS011;3454;42.654;23.378;2022-09-09T01:47:38;7.03;;;6.32;;
6832;SDS011;3454;42.654;23.378;2022-09-09T01:50:04;10.93;;;6.57;;
6832;SDS011;3454;42.654;23.378;2022-09-09T01:52:32;8.50;;;6.50;;
6832;SDS011;3454;42.654;23.378;2022-09-09T01:55:01;9.05;;;6.50;;
6832;SDS011;3454;42.654;23.378;2022-09-09T01:57:27;9.07;;;6.85;;
6832;SDS011;3454;42.654;23.378;2022-09-09T02:00:14;7.55;;;6.43;;
6832;SDS011;3454;42.654;23.378;2022-09-09T02:02:48;6.57;;;5.90;;
6832;SDS011;3454;42.654;23.378;2022-09-09T02:08:20;10.57;;;7.47;;
6832;SDS011;3454;42.654;23.378;2022-09-09T02:11:11;7.03;;;6.22;;
6832;SDS011;3454;42.654;23.378;2022-09-09T02:13:40;8.50;;;6.40;;
6832;SDS011;3454;42.654;23.378;2022-09-09T02:16:27;7.88;;;7.03;;
6832;SDS011;3454;42.654;23.378;2022-09-09T02:19:10;8.10;;;6.53;;
6832;SDS011;3454;42.654;23.378;2022-09-09T02:21:41;7.05;;;6.35;;
6832;SDS011;3454;42.654;23.378;2022-09-09T02:24:09;7.28;;;6.32;;
6832;SDS011;3454;42.654;23.378;2022-09-09T02:26:40;8.35;;;6.70;;
6832;SDS011;3454;42.654;23.378;2022-09-09T02:29:14;7.82;;;6.28;;
6832;SDS011;3454;42.654;23.378;2022-09-09T02:31:42;9.30;;;6.32;;
6832;SDS011;3454;42.654;23.378;2022-09-09T02:34:11;7.07;;;6.20;;
6832;SDS011;3454;42.654;23.378;2022-09-09T02:36:39;10.32;;;6.82;;
6832;SDS011;3454;42.654;23.378;2022-09-09T02:39:07;10.85;;;6.22;;
6832;SDS011;3454;42.654;23.378;2022-09-09T02:41:35;17.65;;;6.82;;
6832;SDS011;3454;42.654;23.378;2022-09-09T02:44:09;7.15;;;6.47;;
6832;SDS011;3454;42.654;23.378;2022-09-09T02:49:31;10.02;;;6.68;;
6832;SDS011;3454;42.654;23.378;2022-09-09T02:52:07;8.50;;;6.65;;
6832;SDS011;3454;42.654;23.378;2022-09-09T02:54:37;7.93;;;6.88;;
6832;SDS011;3454;42.654;23.378;2022-09-09T02:57:23;10.27;;;7.38;;
6832;SDS011;3454;42.654;23.378;2022-09-09T02:59:52;12.50;;;7.85;;
6832;SDS011;3454;42.654;23.378;2022-09-09T03:02:18;10.07;;;7.85;;
6832;SDS011;3454;42.654;23.378;2022-09-09T03:04:44;12.02;;;7.78;;
6832;SDS011;3454;42.654;23.378;2022-09-09T03:07:15;8.20;;;7.38;;
6832;SDS011;3454;42.654;23.378;2022-09-09T03:09:42;10.27;;;7.50;;
6832;SDS011;3454;42.654;23.378;2022-09-09T03:12:07;10.82;;;8.63;;
6832;SDS011;3454;42.654;23.378;2022-09-09T03:14:33;14.30;;;9.23;;
6832;SDS011;3454;42.654;23.378;2022-09-09T03:16:58;14.70;;;8.70;;
6832;SDS011;3454;42.654;23.378;2022-09-09T03:19:26;9.80;;;8.40;;
6832;SDS011;3454;42.654;23.378;2022-09-09T03:21:52;12.45;;;8.95;;
6832;SDS011;3454;42.654;23.378;2022-09-09T03:24:18;12.52;;;10.00;;
6832;SDS011;3454;42.654;23.378;2022-09-09T03:26:44;13.70;;;9.40;;
6832;SDS011;3454;42.654;23.378;2022-09-09T03:29:10;12.35;;;8.30;;
6832;SDS011;3454;42.654;23.378;2022-09-09T03:31:41;13.43;;;9.85;;
6832;SDS011;3454;42.654;23.378;2022-09-09T03:34:08;11.10;;;9.35;;
6832;SDS011;3454;42.654;23.378;2022-09-09T03:36:33;12.85;;;9.82;;
6832;SDS011;3454;42.654;23.378;2022-09-09T03:38:58;12.38;;;9.07;;
6832;SDS011;3454;42.654;23.378;2022-09-09T03:41:25;10.63;;;9.02;;
6832;SDS011;3454;42.654;23.378;2022-09-09T03:43:51;15.40;;;9.52;;
6832;SDS011;3454;42.654;23.378;2022-09-09T03:46:17;14.93;;;9.85;;
6832;SDS011;3454;42.654;23.378;2022-09-09T03:48:51;14.60;;;9.85;;
6832;SDS011;3454;42.654;23.378;2022-09-09T03:51:17;11.50;;;9.23;;
6832;SDS011;3454;42.654;23.378;2022-09-09T03:53:43;9.65;;;8.48;;
6832;SDS011;3454;42.654;23.378;2022-09-09T03:56:15;11.43;;;9.07;;
6832;SDS011;3454;42.654;23.378;2022-09-09T03:58:42;12.82;;;9.35;;
6832;SDS011;3454;42.654;23.378;2022-09-09T04:01:11;13.00;;;9.57;;
6832;SDS011;3454;42.654;23.378;2022-09-09T04:03:42;11.38;;;9.15;;
6832;SDS011;3454;42.654;23.378;2022-09-09T04:06:10;11.75;;;9.65;;
6832;SDS011;3454;42.654;23.378;2022-09-09T04:08:38;11.13;;;9.85;;
6832;SDS011;3454;42.654;23.378;2022-09-09T04:11:04;11.63;;;9.05;;
6832;SDS011;3454;42.654;23.378;2022-09-09T04:13:34;13.13;;;9.05;;
6832;SDS011;3454;42.654;23.378;2022-09-09T04:16:02;13.82;;;9.73;;
6832;SDS011;3454;42.654;23.378;2022-09-09T04:18:28;13.10;;;9.80;;
6832;SDS011;3454;42.654;23.378;2022-09-09T04:20:54;10.75;;;9.73;;
6832;SDS011;3454;42.654;23.378;2022-09-09T04:23:27;13.98;;;9.65;;
6832;SDS011;3454;42.654;23.378;2022-09-09T04:25:57;12.32;;;9.50;;
6832;SDS011;3454;42.654;23.378;2022-09-09T04:28:24;14.88;;;10.73;;
6832;SDS011;3454;42.654;23.378;2022-09-09T04:30:51;16.00;;;9.65;;
6832;SDS011;3454;42.654;23.378;2022-09-09T04:33:17;19.50;;;11.30;;
6832;SDS011;3454;42.654;23.378;2022-09-09T04:35:43;15.80;;;10.63;;
6832;SDS011;3454;42.654;23.378;2022-09-09T04:38:14;12.27;;;10.55;;
6832;SDS011;3454;42.654;23.378;2022-09-09T04:40:43;15.00;;;10.25;;
6832;SDS011;3454;42.654;23.378;2022-09-09T04:43:11;15.25;;;10.13;;
6832;SDS011;3454;42.654;23.378;2022-09-09T04:45:39;15.00;;;10.40;;
6832;SDS011;3454;42.654;23.378;2022-09-09T04:48:05;15.10;;;10.43;;
6832;SDS011;3454;42.654;23.378;2022-09-09T04:50:32;14.48;;;10.32;;
6832;SDS011;3454;42.654;23.378;2022-09-09T04:53:01;14.65;;;9.93;;
6832;SDS011;3454;42.654;23.378;2022-09-09T04:55:27;11.60;;;8.88;;
6832;SDS011;3454;42.654;23.378;2022-09-09T04:57:52;13.20;;;8.75;;
6832;SDS011;3454;42.654;23.378;2022-09-09T05:00:18;10.57;;;7.63;;
6832;SDS011;3454;42.654;23.378;2022-09-09T05:02:44;11.48;;;8.15;;
6832;SDS011;3454;42.654;23.378;2022-09-09T05:05:10;11.65;;;7.32;;
6832;SDS011;3454;42.654;23.378;2022-09-09T05:07:36;8.98;;;7.45;;
6832;SDS011;3454;42.654;23.378;2022-09-09T05:10:02;7.50;;;6.80;;
6832;SDS011;3454;42.654;23.378;2022-09-09T05:12:30;12.15;;;8.43;;
6832;SDS011;3454;42.654;23.378;2022-09-09T05:14:56;8.68;;;7.57;;
6832;SDS011;3454;42.654;23.378;2022-09-09T05:17:21;9.98;;;8.23;;
6832;SDS011;3454;42.654;23.378;2022-09-09T05:19:47;8.13;;;7.25;;
6832;SDS011;3454;42.654;23.378;2022-09-09T05:22:13;11.48;;;7.28;;
6832;SDS011;3454;42.654;23.378;2022-09-09T05:24:42;8.63;;;7.22;;
6832;SDS011;3454;42.654;23.378;2022-09-09T05:27:09;10.23;;;7.38;;
6832;SDS011;3454;42.654;23.378;2022-09-09T05:29:37;8.85;;;7.72;;
6832;SDS011;3454;42.654;23.378;2022-09-09T05:32:03;8.27;;;6.57;;
6832;SDS011;3454;42.654;23.378;2022-09-09T05:34:29;10.40;;;6.43;;
6832;SDS011;3454;42.654;23.378;2022-09-09T05:36:54;12.15;;;7.00;;
6832;SDS011;3454;42.654;23.378;2022-09-09T05:39:20;8.10;;;7.07;;
6832;SDS011;3454;42.654;23.378;2022-09-09T05:41:46;10.18;;;7.35;;
6832;SDS011;3454;42.654;23.378;2022-09-09T05:44:11;9.10;;;7.07;;
6832;SDS011;3454;42.654;23.378;2022-09-09T05:46:38;8.65;;;6.75;;
6832;SDS011;3454;42.654;23.378;2022-09-09T05:49:04;10.65;;;6.50;;
6832;SDS011;3454;42.654;23.378;2022-09-09T05:51:30;9.77;;;6.93;;
6832;SDS011;3454;42.654;23.378;2022-09-09T05:53:56;7.60;;;6.82;;
6832;SDS011;3454;42.654;23.378;2022-09-09T05:56:26;9.48;;;7.05;;
6832;SDS011;3454;42.654;23.378;2022-09-09T05:58:53;7.30;;;6.35;;
6832;SDS011;3454;42.654;23.378;2022-09-09T06:03:54;10.48;;;7.20;;
6832;SDS011;3454;42.654;23.378;2022-09-09T06:06:26;9.93;;;6.90;;
6832;SDS011;3454;42.654;23.378;2022-09-09T06:08:55;11.85;;;7.40;;
6832;SDS011;3454;42.654;23.378;2022-09-09T06:11:29;12.70;;;7.60;;
6832;SDS011;3454;42.654;23.378;2022-09-09T06:14:00;16.25;;;8.10;;
6832;SDS011;3454;42.654;23.378;2022-09-09T06:16:26;10.98;;;7.53;;
6832;SDS011;3454;42.654;23.378;2022-09-09T06:18:53;15.60;;;8.23;;
6832;SDS011;3454;42.654;23.378;2022-09-09T06:21:21;13.40;;;7.72;;
6832;SDS011;3454;42.654;23.378;2022-09-09T06:23:48;12.80;;;8.00;;
6832;SDS011;3454;42.654;23.378;2022-09-09T06:26:19;11.82;;;7.70;;
6832;SDS011;3454;42.654;23.378;2022-09-09T06:28:45;18.23;;;8.85;;
6832;SDS011;3454;42.654;23.378;2022-09-09T06:31:13;13.73;;;8.45;;
6832;SDS011;3454;42.654;23.378;2022-09-09T06:33:42;11.57;;;8.30;;
6832;SDS011;3454;42.654;23.378;2022-09-09T06:36:25;8.40;;;7.53;;
6832;SDS011;3454;42.654;23.378;2022-09-09T06:38:56;11.18;;;7.80;;
6832;SDS011;3454;42.654;23.378;2022-09-09T06:41:22;10.63;;;7.05;;
6832;SDS011;3454;42.654;23.378;2022-09-09T06:43:51;11.63;;;7.47;;
6832;SDS011;3454;42.654;23.378;2022-09-09T06:46:26;13.40;;;7.35;;
6832;SDS011;3454;42.654;23.378;2022-09-09T06:48:53;10.05;;;7.03;;
6832;SDS011;3454;42.654;23.378;2022-09-09T06:51:26;12.95;;;8.40;;
6832;SDS011;3454;42.654;23.378;2022-09-09T06:53:54;9.05;;;6.95;;
6832;SDS011;3454;42.654;23.378;2022-09-09T06:56:23;10.18;;;6.75;;
6832;SDS011;3454;42.654;23.378;2022-09-09T06:58:53;11.80;;;7.00;;
6832;SDS011;3454;42.654;23.378;2022-09-09T07:01:24;13.05;;;7.10;;
6832;SDS011;3454;42.654;23.378;2022-09-09T07:04:06;10.50;;;6.85;;
6832;SDS011;3454;42.654;23.378;2022-09-09T07:06:38;10.48;;;6.15;;
6832;SDS011;3454;42.654;23.378;2022-09-09T07:09:08;6.80;;;5.82;;
6832;SDS011;3454;42.654;23.378;2022-09-09T07:12:08;10.90;;;7.65;;
6832;SDS011;3454;42.654;23.378;2022-09-09T07:14:27;9.23;;;5.93;;
6832;SDS011;3454;42.654;23.378;2022-09-09T07:16:52;8.80;;;5.93;;
6832;SDS011;3454;42.654;23.378;2022-09-09T07:19:18;7.30;;;5.72;;
6832;SDS011;3454;42.654;23.378;2022-09-09T07:21:43;12.27;;;6.30;;
6832;SDS011;3454;42.654;23.378;2022-09-09T07:24:09;12.18;;;5.95;;
6832;SDS011;3454;42.654;23.378;2022-09-09T07:26:36;11.90;;;5.68;;
6832;SDS011;3454;42.654;23.378;2022-09-09T07:29:03;8.65;;;6.05;;
6832;SDS011;3454;42.654;23.378;2022-09-09T07:31:32;20.15;;;6.85;;
6832;SDS011;3454;42.654;23.378;2022-09-09T07:34:01;12.35;;;6.38;;
6832;SDS011;3454;42.654;23.378;2022-09-09T07:36:29;9.63;;;6.05;;
6832;SDS011;3454;42.654;23.378;2022-09-09T07:38:56;12.93;;;6.43;;
6832;SDS011;3454;42.654;23.378;2022-09-09T07:41:25;7.45;;;5.65;;
6832;SDS011;3454;42.654;23.378;2022-09-09T07:43:52;5.57;;;4.97;;
6832;SDS011;3454;42.654;23.378;2022-09-09T07:46:24;10.20;;;5.32;;
6832;SDS011;3454;42.654;23.378;2022-09-09T07:48:54;7.05;;;6.07;;
6832;SDS011;3454;42.654;23.378;2022-09-09T07:51:25;9.82;;;5.32;;
6832;SDS011;3454;42.654;23.378;2022-09-09T07:53:57;9.63;;;5.57;;
6832;SDS011;3454;42.654;23.378;2022-09-09T07:56:25;11.23;;;6.30;;
6832;SDS011;3454;42.654;23.378;2022-09-09T07:58:52;14.73;;;5.22;;
6832;SDS011;3454;42.654;23.378;2022-09-09T08:03:46;7.88;;;4.93;;
6832;SDS011;3454;42.654;23.378;2022-09-09T08:06:17;7.53;;;5.18;;
6832;SDS011;3454;42.654;23.378;2022-09-09T08:08:43;5.53;;;4.35;;
6832;SDS011;3454;42.654;23.378;2022-09-09T08:13:37;6.35;;;4.50;;
6832;SDS011;3454;42.654;23.378;2022-09-09T08:16:04;7.50;;;4.60;;
6832;SDS011;3454;42.654;23.378;2022-09-09T08:18:34;5.15;;;4.60;;
6832;SDS011;3454;42.654;23.378;2022-09-09T08:21:07;10.35;;;5.05;;
6832;SDS011;3454;42.654;23.378;2022-09-09T08:23:37;8.35;;;5.10;;
6832;SDS011;3454;42.654;23.378;2022-09-09T08:26:05;8.75;;;5.00;;
6832;SDS011;3454;42.654;23.378;2022-09-09T08:28:31;6.35;;;5.03;;
6832;SDS011;3454;42.654;23.378;2022-09-09T08:31:04;9.85;;;4.47;;
6832;SDS011;3454;42.654;23.378;2022-09-09T08:33:32;6.82;;;5.00;;
6832;SDS011;3454;42.654;23.378;2022-09-09T08:35:58;11.07;;;4.82;;
6832;SDS011;3454;42.654;23.378;2022-09-09T08:38:24;7.50;;;4.78;;
6832;SDS011;3454;42.654;23.378;2022-09-09T08:40:49;6.78;;;4.60;;
6832;SDS011;3454;42.654;23.378;2022-09-09T08:43:19;6.57;;;4.63;;
6832;SDS011;3454;42.654;23.378;2022-09-09T08:45:50;9.10;;;5.03;;
6832;SDS011;3454;42.654;23.378;2022-09-09T08:51:12;17.88;;;5.35;;
6832;SDS011;3454;42.654;23.378;2022-09-09T08:53:42;10.13;;;6.38;;
6832;SDS011;3454;42.654;23.378;2022-09-09T08:56:16;7.63;;;5.35;;
6832;SDS011;3454;42.654;23.378;2022-09-09T08:58:50;14.25;;;6.05;;
6832;SDS011;3454;42.654;23.378;2022-09-09T09:04:10;12.30;;;5.50;;
6832;SDS011;3454;42.654;23.378;2022-09-09T09:11:55;9.10;;;4.90;;
6832;SDS011;3454;42.654;23.378;2022-09-09T09:14:40;7.78;;;5.22;;
6832;SDS011;3454;42.654;23.378;2022-09-09T09:17:15;7.93;;;5.18;;
6832;SDS011;3454;42.654;23.378;2022-09-09T09:19:44;8.95;;;4.35;;
6832;SDS011;3454;42.654;23.378;2022-09-09T09:27:27;9.48;;;5.13;;
6832;SDS011;3454;42.654;23.378;2022-09-09T09:30:19;9.27;;;4.82;;
6832;SDS011;3454;42.654;23.378;2022-09-09T09:32:52;7.57;;;5.10;;
6832;SDS011;3454;42.654;23.378;2022-09-09T09:35:21;5.97;;;4.82;;
6832;SDS011;3454;42.654;23.378;2022-09-09T09:37:46;7.53;;;5.00;;
6832;SDS011;3454;42.654;23.378;2022-09-09T09:40:17;7.90;;;4.65;;
6832;SDS011;3454;42.654;23.378;2022-09-09T09:43:02;7.68;;;5.15;;
6832;SDS011;3454;42.654;23.378;2022-09-09T09:45:34;9.88;;;5.38;;
6832;SDS011;3454;42.654;23.378;2022-09-09T09:48:08;7.45;;;4.75;;
6832;SDS011;3454;42.654;23.378;2022-09-09T09:50:39;9.18;;;5.45;;
6832;SDS011;3454;42.654;23.378;2022-09-09T09:55:59;11.38;;;5.15;;
6832;SDS011;3454;42.654;23.378;2022-09-09T09:58:29;10.88;;;6.78;;
6832;SDS011;3454;42.654;23.378;2022-09-09T10:00:59;8.20;;;5.28;;
6832;SDS011;3454;42.654;23.378;2022-09-09T10:03:27;7.93;;;4.82;;
6832;SDS011;3454;42.654;23.378;2022-09-09T10:05:54;9.07;;;5.25;;
6832;SDS011;3454;42.654;23.378;2022-09-09T10:08:21;10.20;;;5.53;;
6832;SDS011;3454;42.654;23.378;2022-09-09T10:18:56;9.43;;;5.20;;
6832;SDS011;3454;42.654;23.378;2022-09-09T10:40:33;12.95;;;5.05;;
6832;SDS011;3454;42.654;23.378;2022-09-09T10:43:28;11.40;;;5.88;;
6832;SDS011;3454;42.654;23.378;2022-09-09T10:53:52;11.55;;;5.43;;
6832;SDS011;3454;42.654;23.378;2022-09-09T10:56:33;7.75;;;5.38;;
6832;SDS011;3454;42.654;23.378;2022-09-09T10:59:02;5.72;;;5.13;;
6832;SDS011;3454;42.654;23.378;2022-09-09T11:01:43;8.02;;;5.88;;
6832;SDS011;3454;42.654;23.378;2022-09-09T11:04:22;10.13;;;5.20;;
6832;SDS011;3454;42.654;23.378;2022-09-09T11:06:52;13.82;;;5.88;;
6832;SDS011;3454;42.654;23.378;2022-09-09T11:09:26;11.20;;;6.15;;
6832;SDS011;3454;42.654;23.378;2022-09-09T11:11:57;11.77;;;6.28;;
6832;SDS011;3454;42.654;23.378;2022-09-09T11:14:29;10.73;;;6.22;;
6832;SDS011;3454;42.654;23.378;2022-09-09T11:17:07;9.27;;;5.78;;
6832;SDS011;3454;42.654;23.378;2022-09-09T11:19:38;9.60;;;6.18;;
6832;SDS011;3454;42.654;23.378;2022-09-09T11:31:25;6.65;;;5.82;;
6832;SDS011;3454;42.654;23.378;2022-09-09T11:37:28;7.80;;;5.85;;
6832;SDS011;3454;42.654;23.378;2022-09-09T11:44:38;11.60;;;6.28;;
6832;SDS011;3454;42.654;23.378;2022-09-09T11:47:14;8.13;;;5.88;;
6832;SDS011;3454;42.654;23.378;2022-09-09T11:49:45;10.43;;;6.13;;
6832;SDS011;3454;42.654;23.378;2022-09-09T11:52:24;14.32;;;6.47;;
6832;SDS011;3454;42.654;23.378;2022-09-09T11:54:52;9.15;;;6.18;;
6832;SDS011;3454;42.654;23.378;2022-09-09T11:57:25;9.70;;;6.75;;
6832;SDS011;3454;42.654;23.378;2022-09-09T11:59:57;10.05;;;6.93;;
6832;SDS011;3454;42.654;23.378;2022-09-09T12:02:24;8.55;;;7.07;;
6832;SDS011;3454;42.654;23.378;2022-09-09T12:04:59;8.55;;;6.57;;
6832;SDS011;3454;42.654;23.378;2022-09-09T12:07:36;7.75;;;6.80;;
6832;SDS011;3454;42.654;23.378;2022-09-09T12:10:19;11.82;;;7.20;;
6832;SDS011;3454;42.654;23.378;2022-09-09T12:12:50;9.93;;;6.53;;
6832;SDS011;3454;42.654;23.378;2022-09-09T12:20:13;10.32;;;6.75;;
6832;SDS011;3454;42.654;23.378;2022-09-09T12:25:47;10.82;;;7.05;;
6832;SDS011;3454;42.654;23.378;2022-09-09T12:28:21;12.15;;;7.43;;
6832;SDS011;3454;42.654;23.378;2022-09-09T12:31:09;17.15;;;7.72;;
6832;SDS011;3454;42.654;23.378;2022-09-09T12:33:39;14.38;;;7.43;;
6832;SDS011;3454;42.654;23.378;2022-09-09T12:36:14;14.25;;;7.40;;
6832;SDS011;3454;42.654;23.378;2022-09-09T12:38:43;10.73;;;7.30;;
6832;SDS011;3454;42.654;23.378;2022-09-09T12:41:22;12.20;;;7.57;;
6832;SDS011;3454;42.654;23.378;2022-09-09T12:43:50;11.27;;;6.68;;
6832;SDS011;3454;42.654;23.378;2022-09-09T12:46:38;14.05;;;7.03;;
6832;SDS011;3454;42.654;23.378;2022-09-09T12:52:07;13.48;;;6.25;;
6832;SDS011;3454;42.654;23.378;2022-09-09T12:54:42;10.90;;;6.65;;
6832;SDS011;3454;42.654;23.378;2022-09-09T12:57:11;12.73;;;7.10;;
6832;SDS011;3454;42.654;23.378;2022-09-09T12:59:42;13.63;;;6.15;;
6832;SDS011;3454;42.654;23.378;2022-09-09T13:02:21;11.27;;;7.20;;
6832;SDS011;3454;42.654;23.378;2022-09-09T13:04:48;10.35;;;6.00;;
6832;SDS011;3454;42.654;23.378;2022-09-09T13:07:15;14.55;;;8.30;;
6832;SDS011;3454;42.654;23.378;2022-09-09T13:09:41;12.43;;;7.10;;
6832;SDS011;3454;42.654;23.378;2022-09-09T13:12:10;19.25;;;6.97;;
6832;SDS011;3454;42.654;23.378;2022-09-09T13:14:43;11.77;;;7.07;;
6832;SDS011;3454;42.654;23.378;2022-09-09T13:17:17;10.38;;;7.10;;
6832;SDS011;3454;42.654;23.378;2022-09-09T13:19:45;14.43;;;7.63;;
6832;SDS011;3454;42.654;23.378;2022-09-09T13:25:17;10.48;;;6.80;;
6832;SDS011;3454;42.654;23.378;2022-09-09T13:30:31;12.98;;;6.97;;
6832;SDS011;3454;42.654;23.378;2022-09-09T13:38:38;12.90;;;7.05;;
6832;SDS011;3454;42.654;23.378;2022-09-09T13:41:06;13.88;;;7.93;;
6832;SDS011;3454;42.654;23.378;2022-09-09T13:43:38;12.35;;;8.40;;
6832;SDS011;3454;42.654;23.378;2022-09-09T13:46:26;18.33;;;8.30;;
6832;SDS011;3454;42.654;23.378;2022-09-09T13:48:56;14.05;;;7.80;;
6832;SDS011;3454;42.654;23.378;2022-09-09T13:54:10;11.73;;;8.05;;
6832;SDS011;3454;42.654;23.378;2022-09-09T13:56:37;10.70;;;7.55;;
6832;SDS011;3454;42.654;23.378;2022-09-09T13:59:05;18.92;;;7.82;;
6832;SDS011;3454;42.654;23.378;2022-09-09T14:01:34;14.75;;;9.52;;
6832;SDS011;3454;42.654;23.378;2022-09-09T14:04:00;18.73;;;7.97;;
6832;SDS011;3454;42.654;23.378;2022-09-09T14:06:26;14.77;;;8.38;;
6832;SDS011;3454;42.654;23.378;2022-09-09T14:08:52;12.30;;;8.27;;
6832;SDS011;3454;42.654;23.378;2022-09-09T14:11:19;14.80;;;7.90;;
6832;SDS011;3454;42.654;23.378;2022-09-09T14:13:46;18.67;;;8.20;;
6832;SDS011;3454;42.654;23.378;2022-09-09T14:16:14;19.17;;;7.63;;
6832;SDS011;3454;42.654;23.378;2022-09-09T14:18:40;11.50;;;7.38;;
6832;SDS011;3454;42.654;23.378;2022-09-09T14:21:06;17.75;;;7.45;;
6832;SDS011;3454;42.654;23.378;2022-09-09T14:23:31;14.27;;;8.00;;
6832;SDS011;3454;42.654;23.378;2022-09-09T14:25:57;14.23;;;8.00;;
6832;SDS011;3454;42.654;23.378;2022-09-09T14:28:22;16.02;;;7.55;;
6832;SDS011;3454;42.654;23.378;2022-09-09T14:30:58;12.98;;;7.10;;
6832;SDS011;3454;42.654;23.378;2022-09-09T14:33:25;10.32;;;7.70;;
6832;SDS011;3454;42.654;23.378;2022-09-09T14:35:55;11.32;;;6.50;;
6832;SDS011;3454;42.654;23.378;2022-09-09T14:38:22;16.13;;;12.15;;
6832;SDS011;3454;42.654;23.378;2022-09-09T14:40:47;12.88;;;7.43;;
6832;SDS011;3454;42.654;23.378;2022-09-09T14:43:12;12.73;;;7.32;;
6832;SDS011;3454;42.654;23.378;2022-09-09T14:45:39;10.50;;;7.40;;
6832;SDS011;3454;42.654;23.378;2022-09-09T14:48:04;15.10;;;7.57;;
6832;SDS011;3454;42.654;23.378;2022-09-09T14:50:30;18.60;;;7.50;;
6832;SDS011;3454;42.654;23.378;2022-09-09T14:52:55;7.78;;;7.00;;
6832;SDS011;3454;42.654;23.378;2022-09-09T14:55:21;11.98;;;7.75;;
6832;SDS011;3454;42.654;23.378;2022-09-09T14:57:46;10.80;;;7.45;;
6832;SDS011;3454;42.654;23.378;2022-09-09T15:00:11;14.32;;;7.75;;
6832;SDS011;3454;42.654;23.378;2022-09-09T15:02:38;12.20;;;7.45;;
6832;SDS011;3454;42.654;23.378;2022-09-09T15:05:03;12.45;;;7.47;;
6832;SDS011;3454;42.654;23.378;2022-09-09T15:07:29;10.43;;;8.02;;
6832;SDS011;3454;42.654;23.378;2022-09-09T15:09:57;18.95;;;7.72;;
6832;SDS011;3454;42.654;23.378;2022-09-09T15:12:23;14.75;;;8.57;;
6832;SDS011;3454;42.654;23.378;2022-09-09T15:14:49;9.70;;;6.68;;
6832;SDS011;3454;42.654;23.378;2022-09-09T15:17:16;11.07;;;8.20;;
6832;SDS011;3454;42.654;23.378;2022-09-09T15:19:41;13.75;;;7.93;;
6832;SDS011;3454;42.654;23.378;2022-09-09T15:22:07;10.60;;;7.13;;
6832;SDS011;3454;42.654;23.378;2022-09-09T15:24:34;14.30;;;8.45;;
6832;SDS011;3454;42.654;23.378;2022-09-09T15:27:00;14.30;;;7.22;;
6832;SDS011;3454;42.654;23.378;2022-09-09T15:29:27;15.02;;;7.80;;
6832;SDS011;3454;42.654;23.378;2022-09-09T15:31:53;14.00;;;8.18;;
6832;SDS011;3454;42.654;23.378;2022-09-09T15:34:19;13.73;;;8.18;;
6832;SDS011;3454;42.654;23.378;2022-09-09T15:36:45;13.55;;;7.75;;
6832;SDS011;3454;42.654;23.378;2022-09-09T15:39:11;13.85;;;7.63;;
6832;SDS011;3454;42.654;23.378;2022-09-09T15:41:40;14.93;;;8.00;;
6832;SDS011;3454;42.654;23.378;2022-09-09T15:44:10;15.40;;;7.20;;
6832;SDS011;3454;42.654;23.378;2022-09-09T15:46:39;13.57;;;8.38;;
6832;SDS011;3454;42.654;23.378;2022-09-09T15:51:35;12.77;;;7.95;;
6832;SDS011;3454;42.654;23.378;2022-09-09T15:54:02;11.00;;;8.00;;
6832;SDS011;3454;42.654;23.378;2022-09-09T15:56:28;10.05;;;6.72;;
6832;SDS011;3454;42.654;23.378;2022-09-09T15:58:58;13.15;;;6.70;;
6832;SDS011;3454;42.654;23.378;2022-09-09T16:01:25;8.90;;;7.13;;
6832;SDS011;3454;42.654;23.378;2022-09-09T16:03:52;13.52;;;6.90;;
6832;SDS011;3454;42.654;23.378;2022-09-09T16:06:18;14.02;;;7.50;;
6832;SDS011;3454;42.654;23.378;2022-09-09T16:08:46;16.67;;;7.05;;
6832;SDS011;3454;42.654;23.378;2022-09-09T16:11:24;12.50;;;7.65;;
6832;SDS011;3454;42.654;23.378;2022-09-09T16:13:52;9.15;;;6.93;;
6832;SDS011;3454;42.654;23.378;2022-09-09T16:16:20;11.18;;;6.85;;
6832;SDS011;3454;42.654;23.378;2022-09-09T16:18:50;10.75;;;7.38;;
6832;SDS011;3454;42.654;23.378;2022-09-09T16:23:44;15.98;;;7.80;;
6832;SDS011;3454;42.654;23.378;2022-09-09T16:26:10;15.73;;;7.70;;
6832;SDS011;3454;42.654;23.378;2022-09-09T16:28:38;13.38;;;6.68;;
6832;SDS011;3454;42.654;23.378;2022-09-09T16:31:08;17.83;;;7.50;;
6832;SDS011;3454;42.654;23.378;2022-09-09T16:33:36;16.05;;;7.18;;
6832;SDS011;3454;42.654;23.378;2022-09-09T16:36:06;14.35;;;7.85;;
6832;SDS011;3454;42.654;23.378;2022-09-09T16:38:37;9.82;;;6.93;;
6832;SDS011;3454;42.654;23.378;2022-09-09T16:41:03;11.63;;;7.07;;
6832;SDS011;3454;42.654;23.378;2022-09-09T16:43:31;31.13;;;16.25;;
6832;SDS011;3454;42.654;23.378;2022-09-09T16:46:01;11.70;;;7.57;;
6832;SDS011;3454;42.654;23.378;2022-09-09T16:48:30;15.55;;;7.90;;
6832;SDS011;3454;42.654;23.378;2022-09-09T16:51:40;14.80;;;9.15;;
6832;SDS011;3454;42.654;23.378;2022-09-09T16:53:51;35.33;;;17.45;;
6832;SDS011;3454;42.654;23.378;2022-09-09T16:56:22;35.45;;;15.82;;
6832;SDS011;3454;42.654;23.378;2022-09-09T16:58:52;23.58;;;11.88;;
6832;SDS011;3454;42.654;23.378;2022-09-09T17:01:26;20.67;;;10.95;;
6832;SDS011;3454;42.654;23.378;2022-09-09T17:04:01;23.23;;;9.80;;
6832;SDS011;3454;42.654;23.378;2022-09-09T17:06:28;21.55;;;10.70;;
6832;SDS011;3454;42.654;23.378;2022-09-09T17:08:58;20.55;;;10.82;;
6832;SDS011;3454;42.654;23.378;2022-09-09T17:11:26;18.95;;;9.77;;
6832;SDS011;3454;42.654;23.378;2022-09-09T17:13:52;18.98;;;10.77;;
6832;SDS011;3454;42.654;23.378;2022-09-09T17:16:20;16.83;;;10.07;;
6832;SDS011;3454;42.654;23.378;2022-09-09T17:18:47;18.92;;;10.15;;
6832;SDS011;3454;42.654;23.378;2022-09-09T17:21:14;18.95;;;9.35;;
6832;SDS011;3454;42.654;23.378;2022-09-09T17:23:42;26.65;;;10.68;;
6832;SDS011;3454;42.654;23.378;2022-09-09T17:26:09;18.45;;;10.00;;
6832;SDS011;3454;42.654;23.378;2022-09-09T17:28:37;15.27;;;9.27;;
6832;SDS011;3454;42.654;23.378;2022-09-09T17:31:04;18.77;;;9.32;;
6832;SDS011;3454;42.654;23.378;2022-09-09T17:33:35;18.75;;;9.52;;